Terminal Aerodrome Forecast
Issued by NWS Indianapolis, IN

Home | Current Version | Previous Version | Text Only | Print | Product List | Glossary On
Versions: 1 2 3 4 5 6 7 8 9 10 11 12 13 14 15 16 17 18 19 20 21 22 23 24
000
FTUS43 KIND 201700
TAFIND
TAF
KIND 201724Z 2018/2124 22013G18KT P6SM SCT040 BKN250
     FM210000 22008KT P6SM FEW040 SCT080 BKN250
      TEMPO 2102/2106 3SM TSRA BKN025 OVC040CB
     FM210800 23009KT P6SM SCT012 SCT080 BKN250
     FM211300 26009KT P6SM SCT012
     FM211500 28015G22KT P6SM SCT025=

USA.gov is the U.S. government's official web portal to all federal, state and local government web resources and services.